Weather Cam  Weather Cam


Weather Cam 2  Weather Cam 2


Thunder radar more information blitzortung!


Rain radar more information rain snow radar


Visit our other weather sites:

Template documentation
and downloads

And another site


You find our weather info also at:

WeatherCloud

Weather Underground

Northwest Weather Network

AWEKAS

Citizen Weather Observer Program (CWOP)



There are no active watches, warnings or advisories

Nearby METAR Reports

   
KCOE - Coeur d'Alene, ID
Updated: Jan 20 2019 11:37 am
Few Clouds  
Few Clouds  
   Wind: North 15 mph
Wind: North 15 mph
Temperature: 35.6°F
Wind Chill: 26.6°F
Dew Point: 33.8°F
Humidity: 93%
Barometer: 29.76 inHg
Clouds: Few Clouds
Visibility: 10 mi
Cloud details: Few Clouds 213 m
KCOE 201937Z AUTO 01013KT 10SM FEW007 02/01 A2976 RMK AO2 FZRANO
KGEG - Spokane, WA
Updated: Jan 20 2019 11:23 am
Light Snow, Mist, Overcast  
Light Snow, Mist, Overcast  
   Wind: NE 6.9 mph
Wind: NE 6.9 mph
Temperature: 33.8°F
Wind Chill: 28.4°F
Dew Point: 32°F
Humidity: 93%
Barometer: 29.78 inHg
Clouds: Overcast
Visibility: 1 mi
Cloud details: Partly Cloudy 91 m,
Overcast 152 m
KGEG 201923Z 05006KT 1SM -SN BR SCT003 OVC005 01/00 A2978 RMK AO2 SFC VIS 1 1/2 VIS W-NW 2 P0000 T00060000
KSFF - Spokane Felts
Updated: Jan 20 2019 10:53 am
Overcast  
Overcast  
   Wind: NNW 3.5 mph
Wind: NNW 3.5 mph
Temperature: 35.6°F
Wind Chill: 33.8°F
Dew Point: 33.8°F
Humidity: 93%
Barometer: 29.82 inHg
Clouds: Overcast
Visibility: 10 mi
Cloud details: Overcast 183 m
KSFF 201853Z 34003KT 10SM OVC006 02/01 A2982 RMK AO2 SLP109 T00220011
KSKA - Fairchild AFB
Updated: Jan 20 2019 11:33 am
Light Snow, Overcast  
Light Snow, Overcast  
   Wind: NNE 6.9 mph
Wind: NNE 6.9 mph
Temperature: 33.8°F
Wind Chill: 28.4°F
Dew Point: 33.8°F
Humidity: 100%
Barometer: 29.77 inHg
Clouds: Overcast
Visibility: 10 mi
Cloud details: Overcast 152 m
KSKA 201933Z 02006KT 10SM -SN OVC005 01/01 A2977 RMK AO2A SNB05RAE33 OVC V BKN SLP102 $
KSZT - Sandpoint, ID
Updated: Jan 20 2019 11:35 am
Partly Cloudy  
Partly Cloudy  
   Wind: NNE 15 mph<br />Gust to 15 mph
Wind: NNE 15 mph
Gust to 15 mph
Temperature: 35.6°F
Wind Chill: 26.6°F
Dew Point: 32°F
Humidity: 87%
Barometer: 29.8 inHg
Clouds: Partly Cloudy
Visibility: 10 mi
Cloud details: Partly Cloudy 2438 m
KSZT 201935Z AUTO 02013G18KT 10SM SCT080 02/00 A2980 RMK AO2
KSEA - Sea-Tac, WA
Updated: Jan 20 2019 11:31 am
Mostly Cloudy  
Mostly Cloudy  
   Wind: ENE 4.6 mph
Wind: ENE 4.6 mph
Temperature: 44.6°F
Wind Chill: 42.8°F
Dew Point: 39.2°F
Humidity: 81%
Barometer: 29.9 inHg
Clouds: Mostly Cloudy
Visibility: 10 mi
Cloud details: Mostly Cloudy 457 m,
Mostly Cloudy 4267 m
KSEA 201931Z 07004KT 10SM BKN015 BKN140 07/04 A2990 RMK AO2 T00670039 $

Script developed by  Saratoga-weather.org Adapted for the template by  Weerstation Leuven